Time;durP1;ratioP1;P1;durP2;ratioP2;P2;SDS_P1;SDS_P2;PMS_P1;PMS_P2;Temp;Humidity;BMP_temperature;BMP_pressure;BME280_temperature;BME280_humidity;BME280_pressure;Samples;Min_cycle;Max_cycle;Signal;HPM_P1;HPM_P2
2024/03/17 00:01:13;;;;;;;5.25;3.85;;;;;;;4.92;83.41;101169.81;2493659;28;20405;-78
2024/03/17 00:02:27;;;;;;;5.25;4.15;;;;;;;4.91;83.44;101168.06;2493027;28;20040;-80
2024/03/17 00:03:41;;;;;;;8.00;4.13;;;;;;;4.91;83.27;101169.78;2493299;28;20051;-80
2024/03/17 00:04:54;;;;;;;5.60;3.50;;;;;;;4.87;83.35;101157.63;2493450;28;20431;-77
2024/03/17 00:06:09;;;;;;;5.88;3.95;;;;;;;4.87;83.62;101160.19;2492520;28;20045;-78
2024/03/17 00:07:23;;;;;;;4.57;4.18;;;;;;;4.86;83.45;101159.34;2493314;29;20101;-78
2024/03/17 00:08:37;;;;;;;4.28;3.90;;;;;;;4.83;83.32;101159.28;2493369;28;20063;-79
2024/03/17 00:09:52;;;;;;;4.43;3.70;;;;;;;4.81;83.17;101160.94;2492842;28;20074;-79
2024/03/17 00:11:06;;;;;;;6.32;3.78;;;;;;;4.78;83.38;101164.34;2492643;28;20075;-78
2024/03/17 00:12:20;;;;;;;4.40;3.72;;;;;;;4.77;83.50;101156.53;2493096;28;20047;-79
2024/03/17 00:13:33;;;;;;;4.05;3.65;;;;;;;4.76;83.39;101160.81;2492448;28;20051;-78
2024/03/17 00:14:48;;;;;;;5.78;4.65;;;;;;;4.76;83.58;101158.25;2493196;28;20105;-79
2024/03/17 00:16:02;;;;;;;6.18;4.40;;;;;;;4.74;83.46;101153.88;2492830;28;20459;-79
2024/03/17 00:17:15;;;;;;;5.40;3.88;;;;;;;4.72;83.37;101156.41;2493101;28;20134;-80
2024/03/17 00:18:30;;;;;;;6.82;4.10;;;;;;;4.69;83.42;101158.94;2492560;28;20703;-78
2024/03/17 00:19:43;;;;;;;5.95;3.90;;;;;;;4.67;83.20;101157.16;2492792;28;20102;-80
2024/03/17 00:20:57;;;;;;;5.68;3.83;;;;;;;4.63;83.24;101151.03;2492771;28;20074;-79
2024/03/17 00:22:13;;;;;;;7.25;3.95;;;;;;;4.59;83.32;101160.44;2492476;28;20516;-79
2024/03/17 00:23:28;;;;;;;3.92;3.55;;;;;;;4.57;83.14;101154.34;2492990;28;20508;-78
2024/03/17 00:24:43;;;;;;;6.60;3.53;;;;;;;4.57;83.34;101156.06;2493058;28;20556;-81
2024/03/17 00:25:58;;;;;;;5.72;3.92;;;;;;;4.55;83.29;101150.84;2492038;28;20493;-80
2024/03/17 00:27:13;;;;;;;6.07;4.45;;;;;;;4.55;83.35;101148.28;2492772;28;20047;-79
2024/03/17 00:28:26;;;;;;;10.32;4.88;;;;;;;4.56;83.37;101150.00;2493027;28;20070;-83
2024/03/17 00:29:41;;;;;;;11.57;6.07;;;;;;;4.56;83.40;101156.91;2493573;28;20082;-80
2024/03/17 00:30:55;;;;;;;9.55;5.88;;;;;;;4.55;83.24;101152.56;2493938;28;20624;-80
2024/03/17 00:32:10;;;;;;;8.52;5.95;;;;;;;4.54;83.53;101145.63;2494540;28;20158;-81
2024/03/17 00:33:25;;;;;;;8.30;5.78;;;;;;;4.52;83.23;101144.75;2493492;28;20055;-81
2024/03/17 00:34:38;;;;;;;9.30;8.32;;;;;;;4.51;83.39;101143.84;2492150;28;20054;-79
2024/03/17 00:35:51;;;;;;;7.40;5.88;;;;;;;4.49;83.44;101144.66;2493377;28;20066;-79
2024/03/17 00:37:06;;;;;;;8.57;4.93;;;;;;;4.49;83.44;101144.66;2494525;28;20051;-80
2024/03/17 00:38:19;;;;;;;10.88;6.20;;;;;;;4.47;83.24;101143.78;2494443;28;20050;-79
2024/03/17 00:39:33;;;;;;;7.53;4.88;;;;;;;4.46;83.20;101147.16;2494540;28;20126;-80
2024/03/17 00:40:49;;;;;;;7.22;4.82;;;;;;;4.44;83.29;101144.56;2494729;28;20059;-80
2024/03/17 00:42:03;;;;;;;9.32;5.07;;;;;;;4.42;83.32;101138.47;2493483;28;20059;-80
2024/03/17 00:43:17;;;;;;;25.75;6.45;;;;;;;4.43;83.47;101137.63;2494214;28;20504;-79
2024/03/17 00:44:31;;;;;;;8.02;5.13;;;;;;;4.44;83.28;101141.09;2496568;28;20047;-79
2024/03/17 00:45:51;;;;;;;5.35;4.70;;;;;;;4.42;83.37;101137.63;2497000;28;20058;-82
2024/03/17 00:47:04;;;;;;;5.88;4.22;;;;;;;4.41;83.47;101133.25;2492366;28;20425;-80
2024/03/17 00:48:19;;;;;;;5.57;4.93;;;;;;;4.40;83.40;101134.97;2493624;28;20059;-81
2024/03/17 00:49:32;;;;;;;5.35;4.15;;;;;;;4.41;83.31;101125.50;2493241;28;20158;-80
2024/03/17 00:50:46;;;;;;;5.97;5.13;;;;;;;4.43;83.41;101131.59;2493606;28;20126;-79
2024/03/17 00:52:00;;;;;;;6.13;4.78;;;;;;;4.43;83.49;101134.19;2493554;28;20047;-80
2024/03/17 00:53:14;;;;;;;21.38;5.20;;;;;;;4.44;83.51;101128.16;2494552;28;20043;-80
2024/03/17 00:54:27;;;;;;;10.30;5.35;;;;;;;4.44;83.42;101123.91;2493447;28;20047;-81
2024/03/17 00:55:41;;;;;;;7.30;3.90;;;;;;;4.44;83.52;101123.91;2493548;28;20433;-80
2024/03/17 00:56:56;;;;;;;7.93;4.55;;;;;;;4.45;83.57;101122.19;2494626;28;20497;-79
2024/03/17 00:58:10;;;;;;;8.10;4.90;;;;;;;4.46;83.41;101121.31;2492558;28;20051;-79
2024/03/17 00:59:25;;;;;;;6.07;5.07;;;;;;;4.48;83.62;101119.66;2492999;28;20086;-79
2024/03/17 01:00:39;;;;;;;7.78;5.70;;;;;;;4.46;83.56;101113.56;2493647;29;20130;-78
2024/03/17 01:01:52;;;;;;;5.40;3.95;;;;;;;4.46;83.63;101121.31;2491864;28;20043;-78
2024/03/17 01:03:07;;;;;;;6.35;4.60;;;;;;;4.44;83.42;101118.72;2493062;28;20043;-78
2024/03/17 01:04:20;;;;;;;7.05;4.30;;;;;;;4.42;83.55;101120.38;2493559;28;20047;-78
2024/03/17 01:05:34;;;;;;;11.93;5.15;;;;;;;4.42;83.42;101125.56;2491596;28;20047;-78
2024/03/17 01:06:48;;;;;;;11.00;6.75;;;;;;;4.42;83.82;101119.53;2492441;28;20061;-78
2024/03/17 01:08:01;;;;;;;5.75;4.20;;;;;;;4.40;83.53;101116.88;2492730;28;20047;-77
2024/03/17 01:09:15;;;;;;;10.65;5.10;;;;;;;4.41;83.34;101117.75;2492982;28;20126;-78
2024/03/17 01:10:29;;;;;;;4.35;3.85;;;;;;;4.39;83.66;101115.16;2492431;28;20043;-78
2024/03/17 01:11:44;;;;;;;5.60;4.72;;;;;;;4.39;83.65;101110.00;2493090;28;20043;-79
2024/03/17 01:12:57;;;;;;;6.25;4.53;;;;;;;4.40;83.66;101119.47;2492164;28;20054;-78
2024/03/17 01:14:13;;;;;;;8.07;5.22;;;;;;;4.40;83.72;101116.88;2492397;28;20054;-78
2024/03/17 01:15:27;;;;;;;10.25;4.68;;;;;;;4.42;83.82;101119.53;2492913;28;20070;-78
2024/03/17 01:16:41;;;;;;;5.45;4.18;;;;;;;4.42;83.76;101119.53;2492261;28;20047;-79
2024/03/17 01:17:54;;;;;;;5.35;4.65;;;;;;;4.43;83.91;101110.91;2492304;28;20239;-78
2024/03/17 01:19:08;;;;;;;7.47;5.07;;;;;;;4.42;83.86;101114.34;2493262;28;20058;-78
2024/03/17 01:20:22;;;;;;;10.25;4.38;;;;;;;4.41;83.95;101108.28;2492894;28;20051;-79
2024/03/17 01:21:35;;;;;;;10.07;4.25;;;;;;;4.40;83.91;101111.72;2491741;28;20049;-80
2024/03/17 01:22:50;;;;;;;7.50;4.68;;;;;;;4.40;83.74;101110.84;2492871;28;20094;-78
2024/03/17 01:24:03;;;;;;;4.82;4.43;;;;;;;4.39;83.77;101112.56;2492399;28;20057;-78
2024/03/17 01:25:17;;;;;;;5.18;4.18;;;;;;;4.40;83.72;101103.09;2491834;28;20058;-78
2024/03/17 01:26:31;;;;;;;6.47;4.45;;;;;;;4.38;83.99;101103.91;2493016;28;20098;-78
2024/03/17 01:27:45;;;;;;;7.60;3.88;;;;;;;4.38;83.99;101097.88;2492438;28;20062;-77
2024/03/17 01:28:59;;;;;;;4.30;3.90;;;;;;;4.36;83.84;101104.72;2492555;28;20134;-78
2024/03/17 01:30:14;;;;;;;4.72;4.30;;;;;;;4.35;84.08;101103.00;2491907;28;20063;-78
2024/03/17 01:31:28;;;;;;;4.70;4.15;;;;;;;4.32;83.96;101096.03;2492113;28;20143;-79
2024/03/17 01:32:42;;;;;;;3.90;3.50;;;;;;;4.31;84.01;101101.16;2491166;28;20059;-79
2024/03/17 01:33:55;;;;;;;8.98;4.00;;;;;;;4.28;83.84;101098.50;2492408;28;20423;-78
2024/03/17 01:35:09;;;;;;;4.60;4.10;;;;;;;4.24;83.68;101097.56;2492037;28;20047;-78
2024/03/17 01:36:23;;;;;;;4.65;3.78;;;;;;;4.22;83.97;101099.22;2492900;28;20118;-79
2024/03/17 01:37:37;;;;;;;5.72;4.00;;;;;;;4.19;83.73;101090.53;2492246;28;20413;-79
2024/03/17 01:38:50;;;;;;;3.67;3.38;;;;;;;4.18;83.81;101093.94;2492209;28;20051;-79
2024/03/17 01:40:07;;;;;;;4.40;3.50;;;;;;;4.16;83.95;101086.19;2492670;28;20066;-79
2024/03/17 01:41:21;;;;;;;5.18;4.43;;;;;;;4.13;83.93;101086.06;2491287;28;20043;-79
2024/03/17 01:42:35;;;;;;;4.60;3.85;;;;;;;4.12;83.73;101079.19;2492750;28;20122;-79
2024/03/17 01:43:49;;;;;;;4.32;3.10;;;;;;;4.12;83.86;101085.22;2494430;29;20521;-78
2024/03/17 01:45:27;;;;;;;7.13;4.20;;;;;;;4.16;84.09;101081.00;2494620;29;20066;-78
2024/03/17 01:46:42;;;;;;;5.30;4.00;;;;;;;4.19;83.68;101080.22;2494932;29;20047;-79
2024/03/17 01:47:57;;;;;;;5.13;4.40;;;;;;;4.20;83.82;101075.06;2493989;29;20497;-79
2024/03/17 01:49:11;;;;;;;11.80;4.53;;;;;;;4.21;83.78;101076.84;2494763;29;20058;-79
2024/03/17 01:50:26;;;;;;;8.10;5.03;;;;;;;4.21;83.80;101069.06;2494613;28;20107;-80
2024/03/17 01:51:40;;;;;;;7.18;4.05;;;;;;;4.20;83.41;101071.63;2495522;29;20051;-80
2024/03/17 01:52:55;;;;;;;3.72;3.30;;;;;;;4.19;83.67;101070.75;2495041;29;20055;-78
2024/03/17 01:54:10;;;;;;;8.75;4.57;;;;;;;4.18;83.74;101076.72;2496037;28;20058;-78
2024/03/17 01:55:23;;;;;;;10.55;4.25;;;;;;;4.16;83.80;101073.25;2497745;29;20055;-80
2024/03/17 01:56:37;;;;;;;7.13;4.60;;;;;;;4.13;83.67;101074.06;2495053;29;20059;-80
2024/03/17 01:57:52;;;;;;;5.35;4.85;;;;;;;4.12;83.78;101072.28;2493995;28;20424;-80
2024/03/17 01:59:07;;;;;;;5.75;3.83;;;;;;;4.11;83.71;101077.44;2502824;28;20043;-80
2024/03/17 02:00:22;;;;;;;5.53;4.18;;;;;;;4.12;83.81;101071.44;2487658;29;20044;-80
2024/03/17 02:01:37;;;;;;;13.40;5.03;;;;;;;4.12;83.77;101074.00;2494852;28;21589;-80
2024/03/17 02:02:51;;;;;;;5.28;4.55;;;;;;;4.11;83.79;101067.09;2494917;29;20047;-80
2024/03/17 02:04:05;;;;;;;5.50;3.88;;;;;;;4.10;83.87;101067.94;2495084;29;20051;-80
2024/03/17 02:05:19;;;;;;;5.68;4.45;;;;;;;4.09;83.68;101059.31;2494100;28;20605;-80
2024/03/17 02:06:33;;;;;;;6.20;5.32;;;;;;;4.09;83.92;101064.47;2495006;29;20058;-78
2024/03/17 02:07:46;;;;;;;6.18;4.60;;;;;;;4.08;83.75;101067.00;2498377;28;20051;-79
2024/03/17 02:09:01;;;;;;;6.65;4.78;;;;;;;4.08;83.83;101062.75;2501884;28;20050;-79
2024/03/17 02:10:14;;;;;;;6.47;4.57;;;;;;;4.10;83.95;101065.34;2495070;28;20043;-79
2024/03/17 02:11:29;;;;;;;5.32;4.07;;;;;;;4.11;83.84;101057.66;2495085;29;20089;-79
2024/03/17 02:12:43;;;;;;;7.43;3.83;;;;;;;4.11;83.91;101057.66;2495000;29;20109;-79
2024/03/17 02:13:57;;;;;;;4.28;3.92;;;;;;;4.16;83.98;101062.94;2494606;28;20051;-80
2024/03/17 02:15:11;;;;;;;7.55;5.03;;;;;;;4.20;83.95;101059.56;2495263;29;20059;-78
2024/03/17 02:16:27;;;;;;;7.60;6.22;;;;;;;4.22;83.85;101055.31;2494697;29;20105;-79
2024/03/17 02:17:40;;;;;;;6.30;5.18;;;;;;;4.25;83.93;101054.50;2494414;28;20047;-79
2024/03/17 02:18:54;;;;;;;7.72;4.60;;;;;;;4.26;83.90;101058.81;2494207;29;20073;-79
2024/03/17 02:20:11;;;;;;;7.13;6.28;;;;;;;4.27;83.87;101045.97;2494928;29;20109;-78
2024/03/17 02:21:27;;;;;;;5.15;4.57;;;;;;;4.27;83.89;101051.13;2494210;28;20047;-79
2024/03/17 02:22:41;;;;;;;8.30;4.55;;;;;;;4.26;83.65;101051.97;2498837;28;20047;-80
2024/03/17 02:23:56;;;;;;;7.40;5.85;;;;;;;4.22;83.82;101049.28;2498471;28;20139;-79
2024/03/17 02:25:09;;;;;;;7.82;5.50;;;;;;;4.20;83.67;101041.47;2494613;29;20054;-79
2024/03/17 02:26:25;;;;;;;7.20;5.15;;;;;;;4.19;83.58;101044.91;2494418;28;20047;-79
2024/03/17 02:27:39;;;;;;;10.57;6.00;;;;;;;4.19;83.76;101047.50;2494709;29;20051;-79
2024/03/17 02:28:53;;;;;;;7.45;5.90;;;;;;;4.18;83.64;101047.44;2494777;29;20062;-78
2024/03/17 02:30:09;;;;;;;7.68;5.63;;;;;;;4.18;83.51;101048.31;2493944;28;20491;-80
2024/03/17 02:31:23;;;;;;;10.63;6.97;;;;;;;4.18;83.71;101050.91;2494567;29;20486;-79
2024/03/17 02:32:36;;;;;;;8.50;7.07;;;;;;;4.18;83.58;101050.91;2494590;29;20054;-80
2024/03/17 02:33:50;;;;;;;6.90;5.70;;;;;;;4.18;83.55;101052.63;2494303;28;20051;-81
2024/03/17 02:35:05;;;;;;;11.95;7.07;;;;;;;4.16;83.49;101055.19;2493982;29;20472;-80
2024/03/17 02:36:18;;;;;;;6.93;5.75;;;;;;;4.15;83.51;101048.25;2494869;29;20072;-80
2024/03/17 02:37:32;;;;;;;6.50;5.15;;;;;;;4.13;83.50;101053.41;2494130;28;20495;-78
2024/03/17 02:40:20;;;;;;;9.07;7.40;;;;;;;4.12;83.49;101037.84;2494390;29;20083;-80
2024/03/17 02:41:34;;;;;;;8.07;6.95;;;;;;;4.09;83.43;101042.94;2493807;28;20055;-79
2024/03/17 02:42:48;;;;;;;8.68;7.38;;;;;;;4.08;83.44;101039.50;2494586;29;20777;-79
2024/03/17 02:44:02;;;;;;;11.60;7.07;;;;;;;4.06;83.40;101046.31;2494762;29;20050;-80
2024/03/17 02:45:16;;;;;;;9.65;7.38;;;;;;;4.02;83.43;101041.91;2494556;29;20063;-80
2024/03/17 02:46:30;;;;;;;8.73;5.72;;;;;;;3.97;83.43;101042.63;2493944;29;20105;-80
2024/03/17 02:47:44;;;;;;;10.18;8.52;;;;;;;3.92;83.41;101045.09;2494809;29;20570;-80
2024/03/17 02:48:58;;;;;;;8.23;4.95;;;;;;;3.87;83.48;101039.84;2494525;29;20062;-80
2024/03/17 02:50:13;;;;;;;10.82;5.45;;;;;;;3.83;83.21;101038.00;2493104;28;20051;-81
2024/03/17 02:51:26;;;;;;;10.90;4.72;;;;;;;3.82;83.52;101038.88;2494647;29;20137;-79
2024/03/17 02:52:41;;;;;;;7.32;4.55;;;;;;;3.82;83.70;101036.28;2494700;29;20047;-80
2024/03/17 02:53:56;;;;;;;9.55;4.80;;;;;;;3.81;83.59;101042.25;2494090;28;20043;-79
2024/03/17 02:55:10;;;;;;;7.43;4.40;;;;;;;3.79;83.49;101041.34;2494297;29;20079;-80
2024/03/17 02:56:23;;;;;;;6.57;4.95;;;;;;;3.76;83.66;101040.41;2486775;29;20087;-80
2024/03/17 02:57:38;;;;;;;7.18;4.63;;;;;;;3.71;83.53;101030.81;2493954;28;20513;-80
2024/03/17 02:58:52;;;;;;;9.23;5.00;;;;;;;3.69;83.63;101031.63;2494549;29;20055;-79
2024/03/17 03:00:12;;;;;;;5.97;5.00;;;;;;;3.69;83.57;101036.78;2494512;29;20083;-79
2024/03/17 03:01:26;;;;;;;9.20;6.47;;;;;;;3.65;83.49;101038.41;2493872;28;20504;-79
2024/03/17 03:02:41;;;;;;;5.78;4.53;;;;;;;3.61;83.88;101036.56;2494914;29;20047;-80
2024/03/17 03:03:54;;;;;;;6.95;6.05;;;;;;;3.57;83.76;101028.75;2497830;29;20110;-80
2024/03/17 03:05:09;;;;;;;8.20;5.50;;;;;;;3.54;83.53;101034.69;2494929;29;20408;-80
2024/03/17 03:06:22;;;;;;;9.77;5.13;;;;;;;3.50;83.58;101030.28;2493919;28;20154;-80
2024/03/17 03:07:38;;;;;;;5.47;4.93;;;;;;;3.47;83.68;101032.78;2497658;28;20054;-80
2024/03/17 03:08:51;;;;;;;10.65;6.07;;;;;;;3.45;83.80;101032.72;2498336;28;20428;-80
2024/03/17 03:10:07;;;;;;;6.70;5.78;;;;;;;3.44;83.69;101024.97;2493608;28;20047;-79
2024/03/17 03:11:21;;;;;;;6.78;5.75;;;;;;;3.41;83.67;101028.34;2494620;29;20424;-79
2024/03/17 03:12:36;;;;;;;8.77;5.47;;;;;;;3.38;83.69;101035.09;2494269;29;20055;-80
2024/03/17 03:13:49;;;;;;;9.88;6.93;;;;;;;3.36;83.78;101039.38;2493817;28;20117;-80
2024/03/17 03:15:04;;;;;;;8.50;6.05;;;;;;;3.34;83.95;101039.31;2494211;29;20066;-80
2024/03/17 03:16:18;;;;;;;7.13;5.45;;;;;;;3.32;83.87;101040.97;2494133;29;20070;-80
2024/03/17 03:17:33;;;;;;;13.55;5.90;;;;;;;3.32;83.88;101040.97;2493681;28;20133;-79
2024/03/17 03:18:46;;;;;;;9.38;5.30;;;;;;;3.31;83.87;101035.78;2494414;29;20073;-80
2024/03/17 03:20:01;;;;;;;8.50;5.43;;;;;;;3.28;83.99;101039.16;2494436;29;20522;-79
2024/03/17 03:21:15;;;;;;;9.77;6.68;;;;;;;3.28;84.10;101039.16;2494201;29;20089;-79
2024/03/17 03:22:29;;;;;;;12.68;7.00;;;;;;;3.27;84.07;101037.41;2494482;28;20428;-80
2024/03/17 03:23:44;;;;;;;5.93;4.93;;;;;;;3.26;84.08;101036.53;2494182;29;20043;-80
2024/03/17 03:24:59;;;;;;;5.35;4.82;;;;;;;3.24;84.16;101038.19;2494898;29;20062;-80
2024/03/17 03:26:13;;;;;;;6.20;5.20;;;;;;;3.18;83.90;101042.31;2493553;28;20420;-80
2024/03/17 03:27:28;;;;;;;8.93;6.57;;;;;;;3.13;84.05;101042.19;2504143;28;20046;-79
2024/03/17 03:28:41;;;;;;;8.13;5.65;;;;;;;3.08;84.04;101045.47;2500244;28;20047;-81
2024/03/17 03:29:56;;;;;;;11.25;9.00;;;;;;;3.02;84.05;101038.41;2494860;28;20584;-80
2024/03/17 03:31:13;;;;;;;8.07;7.22;;;;;;;2.99;84.25;101043.50;2496376;29;20569;-81
2024/03/17 03:32:27;;;;;;;7.28;6.53;;;;;;;2.96;84.18;101044.28;2495923;29;20055;-80
2024/03/17 03:33:41;;;;;;;7.63;6.45;;;;;;;2.95;84.39;101042.53;2499660;28;20043;-80
2024/03/17 03:34:55;;;;;;;10.70;6.95;;;;;;;2.96;84.29;101044.28;2500114;28;20134;-80
2024/03/17 03:36:10;;;;;;;12.57;6.78;;;;;;;2.99;84.53;101043.50;2496433;29;20058;-81
2024/03/17 03:37:24;;;;;;;7.15;6.25;;;;;;;2.99;84.44;101036.63;2495829;28;20094;-79
2024/03/17 03:38:38;;;;;;;7.70;6.90;;;;;;;3.02;84.54;101033.25;2495449;29;20101;-78
2024/03/17 03:39:52;;;;;;;7.15;5.80;;;;;;;3.05;84.56;101025.63;2495947;29;20047;-79
2024/03/17 03:41:07;;;;;;;8.23;6.00;;;;;;;3.05;84.55;101034.25;2496105;29;20059;-79
2024/03/17 03:42:24;;;;;;;8.80;6.35;;;;;;;3.08;84.51;101027.44;2503356;28;20058;-81
2024/03/17 03:43:37;;;;;;;7.65;6.10;;;;;;;3.07;84.49;101029.09;2499391;28;20121;-79
2024/03/17 03:44:52;;;;;;;8.55;6.25;;;;;;;3.07;84.58;101023.94;2500619;28;20058;-79
2024/03/17 03:46:07;;;;;;;9.45;5.13;;;;;;;3.08;84.44;101022.28;2495387;28;20062;-80
2024/03/17 03:47:22;;;;;;;6.78;5.57;;;;;;;3.06;84.51;101028.25;2495747;29;20069;-81
2024/03/17 03:48:35;;;;;;;9.05;5.78;;;;;;;3.05;84.48;101023.94;2496264;29;20086;-79
2024/03/17 03:49:50;;;;;;;8.52;5.72;;;;;;;3.05;84.66;101030.78;2495488;28;20420;-80
2024/03/17 03:51:04;;;;;;;7.25;5.40;;;;;;;3.07;84.64;101026.53;2496046;29;20051;-80
2024/03/17 03:52:19;;;;;;;10.45;5.60;;;;;;;3.08;84.62;101032.59;2495574;29;20058;-79
2024/03/17 03:53:32;;;;;;;6.07;5.47;;;;;;;3.08;84.59;101024.84;2495316;28;20565;-79
2024/03/17 03:54:47;;;;;;;9.00;5.90;;;;;;;3.06;84.65;101035.09;2495789;29;20130;-79
2024/03/17 03:56:05;;;;;;;7.30;5.80;;;;;;;3.02;84.63;101031.59;2495713;29;20507;-80
2024/03/17 03:57:20;;;;;;;9.63;6.72;;;;;;;3.01;84.67;101039.25;2495314;28;20564;-80
2024/03/17 03:58:35;;;;;;;7.50;5.35;;;;;;;2.98;84.65;101034.03;2496005;29;20175;-79
2024/03/17 03:59:50;;;;;;;7.88;7.07;;;;;;;2.97;84.72;101033.16;2495651;29;20444;-81
2024/03/17 04:01:04;;;;;;;9.52;6.70;;;;;;;2.99;84.77;101033.19;2495918;29;20075;-80
2024/03/17 04:02:18;;;;;;;8.40;7.43;;;;;;;2.99;84.75;101030.59;2495183;28;20143;-79
2024/03/17 04:03:32;;;;;;;11.10;5.60;;;;;;;2.98;84.79;101028.88;2498370;28;20055;-79
2024/03/17 04:04:47;;;;;;;14.43;6.95;;;;;;;2.99;84.76;101034.03;2501114;28;20086;-80
2024/03/17 04:06:05;;;;;;;11.63;7.10;;;;;;;2.99;84.87;101035.75;2495854;28;20051;-79
2024/03/17 04:07:19;;;;;;;9.32;6.80;;;;;;;2.98;84.82;101047.78;2495529;29;20137;-78
2024/03/17 04:08:34;;;;;;;8.52;7.07;;;;;;;2.98;84.86;101034.88;2495699;29;20386;-80
2024/03/17 04:09:48;;;;;;;9.48;6.95;;;;;;;2.99;84.97;101041.78;2495075;28;20051;-80
2024/03/17 04:11:02;;;;;;;10.65;6.03;;;;;;;3.01;85.05;101040.13;2495711;29;20059;-79
2024/03/17 04:12:16;;;;;;;8.63;7.15;;;;;;;3.02;84.92;101039.31;2497530;28;20062;-79
2024/03/17 04:13:30;;;;;;;9.13;5.78;;;;;;;3.03;84.98;101032.44;2504353;28;20117;-81
2024/03/17 04:14:52;;;;;;;14.68;7.22;;;;;;;3.05;84.95;101030.78;2496220;29;20070;-81
2024/03/17 04:16:07;;;;;;;11.18;7.70;;;;;;;3.09;85.27;101027.44;2495392;29;20405;-81
2024/03/17 04:17:21;;;;;;;11.93;6.68;;;;;;;3.14;84.91;101032.75;2496128;28;20047;-80
2024/03/17 04:18:35;;;;;;;8.23;6.95;;;;;;;3.18;85.05;101026.84;2496009;29;20055;-79
2024/03/17 04:19:49;;;;;;;10.95;7.82;;;;;;;3.20;85.01;101033.78;2496191;29;20090;-79
2024/03/17 04:21:05;;;;;;;9.23;6.30;;;;;;;3.23;85.00;101035.59;2496016;29;20291;-80
2024/03/17 04:22:21;;;;;;;8.38;7.22;;;;;;;3.26;84.96;101033.09;2495215;28;20047;-80
2024/03/17 04:23:35;;;;;;;7.82;7.03;;;;;;;3.31;84.98;101041.81;2498466;28;20189;-80
2024/03/17 04:24:53;;;;;;;8.30;6.47;;;;;;;3.34;85.13;101034.16;2505394;28;20061;-79
2024/03/17 04:26:07;;;;;;;11.45;7.00;;;;;;;3.37;84.87;101044.56;2497933;28;20110;-80
2024/03/17 04:27:21;;;;;;;8.77;7.88;;;;;;;3.38;84.80;101035.09;2496002;29;20061;-79
2024/03/17 04:28:35;;;;;;;9.90;7.97;;;;;;;3.36;85.10;101027.34;2496105;29;20058;-79
2024/03/17 04:29:53;;;;;;;12.05;7.72;;;;;;;3.36;84.69;101032.50;2495259;28;20043;-80
2024/03/17 04:31:07;;;;;;;10.13;6.63;;;;;;;3.34;84.67;101031.59;2495521;29;20117;-79
2024/03/17 04:32:21;;;;;;;10.63;8.02;;;;;;;3.33;84.58;101023.78;2495447;29;20054;-80
2024/03/17 04:33:36;;;;;;;9.63;6.93;;;;;;;3.31;84.45;101028.06;2494963;28;20070;-79
2024/03/17 04:34:51;;;;;;;11.45;6.80;;;;;;;3.28;84.35;101023.69;2495655;29;20055;-79
2024/03/17 04:36:05;;;;;;;9.98;7.38;;;;;;;3.25;84.28;101024.47;2495605;29;20085;-79
2024/03/17 04:37:19;;;;;;;7.13;6.43;;;;;;;3.23;84.20;101023.56;2495037;28;20059;-79
2024/03/17 04:38:34;;;;;;;6.50;5.90;;;;;;;3.18;84.24;101019.13;2495882;29;20520;-79
2024/03/17 04:39:47;;;;;;;7.43;6.07;;;;;;;3.14;84.17;101027.59;2494989;29;20078;-79
2024/03/17 04:41:05;;;;;;;12.15;6.15;;;;;;;3.11;84.20;101030.09;2495224;28;20449;-80
2024/03/17 04:42:19;;;;;;;10.23;7.10;;;;;;;3.05;84.07;101026.50;2502733;28;20042;-80
2024/03/17 04:43:33;;;;;;;8.63;6.20;;;;;;;3.02;84.15;101026.44;2503209;28;20051;-80
2024/03/17 04:44:47;;;;;;;9.82;6.75;;;;;;;2.99;84.17;101022.88;2495443;29;20544;-79
2024/03/17 04:46:05;;;;;;;8.23;6.80;;;;;;;2.92;84.13;101019.25;2494928;28;20047;-79
2024/03/17 04:47:18;;;;;;;5.95;5.25;;;;;;;2.88;84.18;101017.41;2495360;29;20050;-78
2024/03/17 04:48:33;;;;;;;9.95;7.20;;;;;;;2.82;84.17;101025.84;2497065;28;20423;-80
2024/03/17 04:49:46;;;;;;;9.77;8.05;;;;;;;2.77;84.00;101022.25;2500607;28;20532;-79
2024/03/17 04:51:01;;;;;;;9.57;7.82;;;;;;;2.72;84.15;101030.69;2495597;29;20153;-80
2024/03/17 04:52:16;;;;;;;10.15;7.25;;;;;;;2.65;84.04;101033.91;2495302;29;20058;-79
2024/03/17 04:53:31;;;;;;;10.60;8.73;;;;;;;2.59;84.22;101044.91;2495276;28;20070;-79
2024/03/17 04:54:44;;;;;;;14.80;9.15;;;;;;;2.55;84.19;101043.06;2496084;29;20146;-80
2024/03/17 04:56:03;;;;;;;12.48;9.25;;;;;;;2.52;84.38;101042.97;2495357;29;20058;-78
2024/03/17 04:57:16;;;;;;;14.20;8.77;;;;;;;2.48;84.29;101047.19;2494457;28;20134;-79
2024/03/17 04:58:31;;;;;;;11.52;10.10;;;;;;;2.46;84.30;101037.66;2487443;29;20425;-78
2024/03/17 04:59:44;;;;;;;11.77;9.88;;;;;;;2.44;84.37;101034.16;2494967;29;20062;-79
2024/03/17 05:01:06;;;;;;;12.65;9.27;;;;;;;2.42;84.29;101040.94;2495333;29;20073;-79
2024/03/17 05:02:19;;;;;;;17.13;10.13;;;;;;;2.39;84.46;101037.44;2494847;28;20062;-79
2024/03/17 05:03:34;;;;;;;22.55;12.43;;;;;;;2.38;84.38;101035.72;2495327;29;20050;-79
2024/03/17 05:04:48;;;;;;;14.40;9.80;;;;;;;2.37;84.49;101040.78;2495021;29;20154;-78
2024/03/17 05:06:02;;;;;;;18.30;9.73;;;;;;;2.37;84.41;101044.25;2495209;28;20078;-78
2024/03/17 05:07:16;;;;;;;13.02;8.77;;;;;;;2.37;84.35;101041.66;2503190;28;20133;-79
2024/03/17 05:08:31;;;;;;;9.88;8.80;;;;;;;2.38;84.60;101038.28;2495285;28;20477;-78
2024/03/17 05:09:44;;;;;;;14.02;11.55;;;;;;;2.42;84.48;101036.66;2498498;28;20077;-80
2024/03/17 05:10:59;;;;;;;14.02;9.90;;;;;;;2.43;84.52;101038.44;2504749;28;20119;-78
2024/03/17 05:12:13;;;;;;;15.80;9.27;;;;;;;2.46;84.56;101038.53;2497295;28;20146;-79
2024/03/17 05:13:28;;;;;;;14.98;8.70;;;;;;;2.48;84.49;101036.88;2494464;28;20061;-80
2024/03/17 05:14:41;;;;;;;12.65;8.30;;;;;;;2.48;84.60;101042.03;2494789;29;20489;-79
2024/03/17 05:15:55;;;;;;;12.43;8.98;;;;;;;2.48;84.50;101035.97;2499269;28;20055;-79
2024/03/17 05:17:10;;;;;;;14.00;10.68;;;;;;;2.49;84.47;101040.31;2504466;28;20051;-78
2024/03/17 05:18:25;;;;;;;11.10;8.52;;;;;;;2.48;84.55;101042.03;2495671;28;20568;-79
2024/03/17 05:19:39;;;;;;;9.32;8.40;;;;;;;2.46;84.39;101032.50;2495008;29;20058;-78
2024/03/17 05:21:00;;;;;;;10.75;7.68;;;;;;;2.40;84.23;101031.47;2505532;28;20078;-79
2024/03/17 05:22:14;;;;;;;7.78;6.82;;;;;;;2.36;84.47;101039.06;2496559;28;20134;-80
2024/03/17 05:23:29;;;;;;;10.80;8.82;;;;;;;2.31;84.42;101031.19;2494448;29;20417;-79
2024/03/17 05:24:42;;;;;;;8.00;7.20;;;;;;;2.27;84.32;101033.63;2494825;29;20560;-80
2024/03/17 05:25:57;;;;;;;10.43;7.80;;;;;;;2.23;84.48;101030.06;2494404;28;20077;-79
2024/03/17 05:27:10;;;;;;;14.48;8.60;;;;;;;2.20;84.59;101039.41;2494744;29;20074;-79
2024/03/17 05:28:26;;;;;;;16.90;8.35;;;;;;;2.20;84.58;101036.84;2495657;29;20051;-78
2024/03/17 05:29:40;;;;;;;10.48;7.88;;;;;;;2.19;84.74;101030.78;2494480;28;20039;-77
2024/03/17 05:30:54;;;;;;;9.38;7.38;;;;;;;2.22;84.82;101032.59;2499863;28;20054;-78
2024/03/17 05:32:08;;;;;;;10.57;8.75;;;;;;;2.25;84.72;101033.59;2497890;28;20062;-77
2024/03/17 05:33:25;;;;;;;10.95;8.38;;;;;;;2.25;84.78;101031.00;2493883;28;20149;-79
2024/03/17 05:34:38;;;;;;;11.80;9.07;;;;;;;2.27;84.90;101033.63;2494405;29;21593;-78
2024/03/17 05:35:54;;;;;;;12.68;7.78;;;;;;;2.27;84.72;101028.47;2494370;29;20147;-78
2024/03/17 05:37:07;;;;;;;8.10;6.55;;;;;;;2.27;84.66;101025.88;2494438;29;20051;-79
2024/03/17 05:38:22;;;;;;;9.90;8.90;;;;;;;2.27;84.41;101031.94;2493873;28;20051;-77
2024/03/17 05:39:35;;;;;;;9.50;7.18;;;;;;;2.27;84.83;101031.03;2494156;29;20501;-78
2024/03/17 05:40:56;;;;;;;11.10;7.90;;;;;;;2.27;84.82;101020.72;2494685;29;20053;-79
2024/03/17 05:42:10;;;;;;;12.60;6.85;;;;;;;2.28;84.60;101027.66;2494378;28;20075;-78
2024/03/17 05:43:24;;;;;;;14.00;8.35;;;;;;;2.27;84.81;101028.47;2494569;29;20086;-80
2024/03/17 05:44:49;;;;;;;9.02;7.93;;;;;;;2.27;84.79;101031.94;2494714;29;20416;-78
2024/03/17 05:46:06;;;;;;;10.60;7.15;;;;;;;2.27;84.63;101036.19;2494335;28;20396;-78
2024/03/17 05:47:20;;;;;;;7.28;6.57;;;;;;;2.26;84.76;101034.44;2494486;29;20457;-78
2024/03/17 05:48:37;;;;;;;13.75;7.95;;;;;;;2.26;84.77;101039.59;2494786;29;20062;-79
2024/03/17 05:49:51;;;;;;;7.72;6.93;;;;;;;2.27;84.79;101038.75;2494004;28;20062;-77
2024/03/17 05:51:05;;;;;;;10.27;7.50;;;;;;;2.26;84.83;101034.44;2494448;29;20052;-79
2024/03/17 05:52:19;;;;;;;10.68;7.97;;;;;;;2.26;84.81;101045.63;2494535;29;20497;-78